INFORMAÇÕES DO AERODROMO
Icao Aerodromo KPTB Nome do Aerodromo Dinwiddie County Airport Cidade Petersburg
Código GPS KPTB Elevação Média 193 ft Tipo de Aerodromo small_airport

INFORMAÇÃO DE PISTA
Pista 05 Comprimento da Pista 5001 ft Largura da Pista 100 ft
Elevação da Pista 193 ft Distância de Area de Escape da Pista 0 ft Orientação da Pista 43
Pista 23 Comprimento da Pista 5001 ft Largura da Pista 100 ft
Elevação da Pista 190 ft Distância de Area de Escape da Pista 0 ft Orientação da Pista 223
Pista 14 Comprimento da Pista 3061 ft Largura da Pista 50 ft
Elevação da Pista 186 ft Distância de Area de Escape da Pista 0 ft Orientação da Pista 133
Pista 32 Comprimento da Pista 3061 ft Largura da Pista 50 ft
Elevação da Pista 186 ft Distância de Area de Escape da Pista 0 ft Orientação da Pista 313

FREQUÊNCIAS DO AERODROMO
Tipo APP Nome POTOMAC AP Frequência 134.7 MHZ
Tipo AWOS Nome AWOS 3 Frequência 133.325 MHZ
Tipo DEP Nome POTOMAC DE Frequência 134.7 MHZ
Tipo UNIC Nome CTAF/UNICO Frequência 122.7 MHZ

INFORMAÇÕES DE NAVEGAÇÃO PRÓXIMO AO AERODROMO
Tipo NDB Nome Petersburg Frequência 284 KHZ

Informações de Meteorologia(METAR atual)
METAR DE KPTB
ADDS - METARS form results

(0603 UTC 05 June 2020)
Data provider http://aviationweather.gov/metar/data/
 
METAR text: KPTB 050555Z AUTO 20003KT 10SM CLR 24/18 A2995 RMK AO2 T02370181 10292 20237
Conditions at: KPTB (PETERSBURG , VA, US) observed 0555 UTC 05 June 2020
Temperature: 23.7°C (75°F)
Dewpoint: 18.1°C (65°F) [RH = 71%]
Pressure (altimeter): 29.95 inches Hg (1014.3 mb)
Winds: from the SSW (200 degrees) at 3 MPH (3 knots; 1.5 m/s)
Visibility: 10 or more miles (16+ km)
Ceiling: at least 12,000 feet AGL
Clouds: sky clear below 12,000 feet AGL
Weather: automated observation with no human augmentation;
there may or may not be significant weather present at this time

METAR text: KPTB 050535Z AUTO 20004KT 10SM CLR 24/18 A2995 RMK AO2 T02400182
Conditions at: KPTB (PETERSBURG , VA, US) observed 0535 UTC 05 June 2020
Temperature: 24.0°C (75°F)
Dewpoint: 18.2°C (65°F) [RH = 70%]
Pressure (altimeter): 29.95 inches Hg (1014.3 mb)
Winds: from the SSW (200 degrees) at 5 MPH (4 knots; 2.1 m/s)
Visibility: 10 or more miles (16+ km)
Ceiling: at least 12,000 feet AGL
Clouds: sky clear below 12,000 feet AGL
Weather: automated observation with no human augmentation;
there may or may not be significant weather present at this time

METAR text: KPTB 050515Z AUTO 20003KT 10SM CLR 24/18 A2995 RMK AO2 T02420184
Conditions at: KPTB (PETERSBURG , VA, US) observed 0515 UTC 05 June 2020
Temperature: 24.2°C (76°F)
Dewpoint: 18.4°C (65°F) [RH = 70%]
Pressure (altimeter): 29.95 inches Hg (1014.3 mb)
Winds: from the SSW (200 degrees) at 3 MPH (3 knots; 1.5 m/s)
Visibility: 10 or more miles (16+ km)
Ceiling: at least 12,000 feet AGL
Clouds: sky clear below 12,000 feet AGL
Weather: automated observation with no human augmentation;
there may or may not be significant weather present at this time

MAPA DO AERODROMO


Desenvolvido por Virtual Airlines Manager




Modificado por Servidor Brasil Amigos